sensor_id;sensor_type;location;lat;lon;timestamp;P1;durP1;ratioP1;P2;durP2;ratioP2
21860;SDS011;11095;48.066;8.540;2024-02-16T00:00:24;7.47;;;5.32;;
21860;SDS011;11095;48.066;8.540;2024-02-16T00:02:50;8.07;;;4.82;;
21860;SDS011;11095;48.066;8.540;2024-02-16T00:05:16;7.30;;;4.97;;
21860;SDS011;11095;48.066;8.540;2024-02-16T00:07:42;7.18;;;5.28;;
21860;SDS011;11095;48.066;8.540;2024-02-16T00:10:08;7.63;;;5.38;;
21860;SDS011;11095;48.066;8.540;2024-02-16T00:12:34;8.43;;;5.50;;
21860;SDS011;11095;48.066;8.540;2024-02-16T00:15:01;8.35;;;5.32;;
21860;SDS011;11095;48.066;8.540;2024-02-16T00:17:27;7.25;;;4.57;;
21860;SDS011;11095;48.066;8.540;2024-02-16T00:19:54;7.22;;;5.10;;
21860;SDS011;11095;48.066;8.540;2024-02-16T00:22:20;8.13;;;4.95;;
21860;SDS011;11095;48.066;8.540;2024-02-16T00:24:45;6.20;;;4.78;;
21860;SDS011;11095;48.066;8.540;2024-02-16T00:27:11;6.05;;;4.65;;
21860;SDS011;11095;48.066;8.540;2024-02-16T00:29:37;6.90;;;4.63;;
21860;SDS011;11095;48.066;8.540;2024-02-16T00:32:05;5.47;;;4.43;;
21860;SDS011;11095;48.066;8.540;2024-02-16T00:34:32;6.15;;;4.90;;
21860;SDS011;11095;48.066;8.540;2024-02-16T00:36:59;5.95;;;4.45;;
21860;SDS011;11095;48.066;8.540;2024-02-16T00:39:25;7.47;;;4.55;;
21860;SDS011;11095;48.066;8.540;2024-02-16T00:41:51;7.00;;;4.50;;
21860;SDS011;11095;48.066;8.540;2024-02-16T00:44:16;8.00;;;4.82;;
21860;SDS011;11095;48.066;8.540;2024-02-16T00:46:43;6.50;;;5.03;;
21860;SDS011;11095;48.066;8.540;2024-02-16T00:49:09;6.10;;;4.57;;
21860;SDS011;11095;48.066;8.540;2024-02-16T00:51:38;8.10;;;5.28;;
21860;SDS011;11095;48.066;8.540;2024-02-16T00:54:04;6.82;;;5.15;;
21860;SDS011;11095;48.066;8.540;2024-02-16T00:56:30;6.35;;;4.93;;
21860;SDS011;11095;48.066;8.540;2024-02-16T00:58:57;6.07;;;4.70;;
21860;SDS011;11095;48.066;8.540;2024-02-16T01:01:23;5.57;;;4.53;;
21860;SDS011;11095;48.066;8.540;2024-02-16T01:03:50;7.20;;;4.65;;
21860;SDS011;11095;48.066;8.540;2024-02-16T01:06:17;6.72;;;4.85;;
21860;SDS011;11095;48.066;8.540;2024-02-16T01:08:43;5.65;;;4.50;;
21860;SDS011;11095;48.066;8.540;2024-02-16T01:11:08;6.35;;;4.60;;
21860;SDS011;11095;48.066;8.540;2024-02-16T01:13:34;5.80;;;4.00;;
21860;SDS011;11095;48.066;8.540;2024-02-16T01:16:00;5.75;;;4.18;;
21860;SDS011;11095;48.066;8.540;2024-02-16T01:18:27;6.43;;;4.35;;
21860;SDS011;11095;48.066;8.540;2024-02-16T01:20:53;6.32;;;4.32;;
21860;SDS011;11095;48.066;8.540;2024-02-16T01:23:20;5.70;;;4.68;;
21860;SDS011;11095;48.066;8.540;2024-02-16T01:25:45;5.22;;;3.80;;
21860;SDS011;11095;48.066;8.540;2024-02-16T01:28:11;5.47;;;4.10;;
21860;SDS011;11095;48.066;8.540;2024-02-16T01:30:38;5.70;;;4.43;;
21860;SDS011;11095;48.066;8.540;2024-02-16T01:33:04;6.03;;;3.80;;
21860;SDS011;11095;48.066;8.540;2024-02-16T01:35:31;7.30;;;4.38;;
21860;SDS011;11095;48.066;8.540;2024-02-16T01:37:57;6.18;;;4.30;;
21860;SDS011;11095;48.066;8.540;2024-02-16T01:40:23;6.80;;;4.57;;
21860;SDS011;11095;48.066;8.540;2024-02-16T01:42:51;6.95;;;4.53;;
21860;SDS011;11095;48.066;8.540;2024-02-16T01:45:18;5.85;;;4.10;;
21860;SDS011;11095;48.066;8.540;2024-02-16T01:47:44;5.15;;;4.10;;
21860;SDS011;11095;48.066;8.540;2024-02-16T01:50:12;5.60;;;4.05;;
21860;SDS011;11095;48.066;8.540;2024-02-16T01:52:40;7.15;;;4.47;;
21860;SDS011;11095;48.066;8.540;2024-02-16T01:55:08;6.50;;;4.45;;
21860;SDS011;11095;48.066;8.540;2024-02-16T01:57:35;5.55;;;4.20;;
21860;SDS011;11095;48.066;8.540;2024-02-16T02:00:04;5.85;;;4.20;;
21860;SDS011;11095;48.066;8.540;2024-02-16T02:02:32;6.53;;;4.78;;
21860;SDS011;11095;48.066;8.540;2024-02-16T02:04:59;5.03;;;4.07;;
21860;SDS011;11095;48.066;8.540;2024-02-16T02:07:25;7.45;;;4.90;;
21860;SDS011;11095;48.066;8.540;2024-02-16T02:09:54;7.43;;;4.53;;
21860;SDS011;11095;48.066;8.540;2024-02-16T02:12:20;4.93;;;4.10;;
21860;SDS011;11095;48.066;8.540;2024-02-16T02:14:47;6.10;;;4.05;;
21860;SDS011;11095;48.066;8.540;2024-02-16T02:17:13;5.20;;;4.05;;
21860;SDS011;11095;48.066;8.540;2024-02-16T02:19:38;4.90;;;3.78;;
21860;SDS011;11095;48.066;8.540;2024-02-16T02:22:04;5.47;;;4.10;;
21860;SDS011;11095;48.066;8.540;2024-02-16T02:24:33;5.90;;;3.92;;
21860;SDS011;11095;48.066;8.540;2024-02-16T02:26:59;5.53;;;3.90;;
21860;SDS011;11095;48.066;8.540;2024-02-16T02:29:25;5.55;;;3.83;;
21860;SDS011;11095;48.066;8.540;2024-02-16T02:31:50;5.75;;;3.65;;
21860;SDS011;11095;48.066;8.540;2024-02-16T02:34:17;6.18;;;3.90;;
21860;SDS011;11095;48.066;8.540;2024-02-16T02:36:43;4.60;;;3.80;;
21860;SDS011;11095;48.066;8.540;2024-02-16T02:39:09;5.30;;;4.00;;
21860;SDS011;11095;48.066;8.540;2024-02-16T02:41:35;5.97;;;4.20;;
21860;SDS011;11095;48.066;8.540;2024-02-16T02:44:01;5.70;;;4.03;;
21860;SDS011;11095;48.066;8.540;2024-02-16T02:46:26;5.38;;;3.97;;
21860;SDS011;11095;48.066;8.540;2024-02-16T02:48:52;4.82;;;3.88;;
21860;SDS011;11095;48.066;8.540;2024-02-16T02:51:18;5.22;;;4.03;;
21860;SDS011;11095;48.066;8.540;2024-02-16T02:53:44;4.30;;;3.83;;
21860;SDS011;11095;48.066;8.540;2024-02-16T02:56:12;4.70;;;3.75;;
21860;SDS011;11095;48.066;8.540;2024-02-16T02:58:40;4.30;;;3.47;;
21860;SDS011;11095;48.066;8.540;2024-02-16T03:01:06;5.63;;;3.58;;
21860;SDS011;11095;48.066;8.540;2024-02-16T03:03:33;4.68;;;3.85;;
21860;SDS011;11095;48.066;8.540;2024-02-16T03:05:59;6.72;;;4.47;;
21860;SDS011;11095;48.066;8.540;2024-02-16T03:08:25;6.43;;;4.28;;
21860;SDS011;11095;48.066;8.540;2024-02-16T03:10:50;6.35;;;3.90;;
21860;SDS011;11095;48.066;8.540;2024-02-16T03:13:16;5.13;;;3.80;;
21860;SDS011;11095;48.066;8.540;2024-02-16T03:15:44;5.43;;;4.00;;
21860;SDS011;11095;48.066;8.540;2024-02-16T03:18:10;6.57;;;4.35;;
21860;SDS011;11095;48.066;8.540;2024-02-16T03:20:35;6.20;;;4.35;;
21860;SDS011;11095;48.066;8.540;2024-02-16T03:23:01;7.10;;;4.10;;
21860;SDS011;11095;48.066;8.540;2024-02-16T03:25:27;5.95;;;4.35;;
21860;SDS011;11095;48.066;8.540;2024-02-16T03:27:56;5.28;;;4.05;;
21860;SDS011;11095;48.066;8.540;2024-02-16T03:30:21;6.45;;;4.10;;
21860;SDS011;11095;48.066;8.540;2024-02-16T03:32:48;5.22;;;4.20;;
21860;SDS011;11095;48.066;8.540;2024-02-16T03:35:14;5.97;;;4.18;;
21860;SDS011;11095;48.066;8.540;2024-02-16T03:37:40;6.32;;;4.03;;
21860;SDS011;11095;48.066;8.540;2024-02-16T03:40:07;5.50;;;4.32;;
21860;SDS011;11095;48.066;8.540;2024-02-16T03:42:34;6.28;;;4.55;;
21860;SDS011;11095;48.066;8.540;2024-02-16T03:45:01;6.55;;;4.22;;
21860;SDS011;11095;48.066;8.540;2024-02-16T03:47:27;6.78;;;4.63;;
21860;SDS011;11095;48.066;8.540;2024-02-16T03:49:53;7.30;;;4.43;;
21860;SDS011;11095;48.066;8.540;2024-02-16T03:52:19;6.15;;;4.10;;
21860;SDS011;11095;48.066;8.540;2024-02-16T03:54:44;5.68;;;3.97;;
21860;SDS011;11095;48.066;8.540;2024-02-16T03:57:13;6.22;;;4.43;;
21860;SDS011;11095;48.066;8.540;2024-02-16T03:59:40;6.40;;;4.55;;
21860;SDS011;11095;48.066;8.540;2024-02-16T04:02:06;5.70;;;4.13;;
21860;SDS011;11095;48.066;8.540;2024-02-16T04:04:31;4.35;;;3.95;;
21860;SDS011;11095;48.066;8.540;2024-02-16T04:06:57;7.28;;;4.72;;
21860;SDS011;11095;48.066;8.540;2024-02-16T04:09:22;6.53;;;4.68;;
21860;SDS011;11095;48.066;8.540;2024-02-16T04:11:48;6.10;;;4.65;;
21860;SDS011;11095;48.066;8.540;2024-02-16T04:14:13;5.93;;;4.20;;
21860;SDS011;11095;48.066;8.540;2024-02-16T04:16:39;6.22;;;4.65;;
21860;SDS011;11095;48.066;8.540;2024-02-16T04:19:08;7.15;;;4.70;;
21860;SDS011;11095;48.066;8.540;2024-02-16T04:21:34;5.65;;;4.50;;
21860;SDS011;11095;48.066;8.540;2024-02-16T04:23:59;6.78;;;4.45;;
21860;SDS011;11095;48.066;8.540;2024-02-16T04:26:25;6.20;;;4.72;;
21860;SDS011;11095;48.066;8.540;2024-02-16T04:28:50;6.43;;;5.28;;
21860;SDS011;11095;48.066;8.540;2024-02-16T04:31:16;6.47;;;4.80;;
21860;SDS011;11095;48.066;8.540;2024-02-16T04:33:41;5.93;;;4.82;;
21860;SDS011;11095;48.066;8.540;2024-02-16T04:36:07;6.10;;;4.88;;
21860;SDS011;11095;48.066;8.540;2024-02-16T04:38:33;6.65;;;4.93;;
21860;SDS011;11095;48.066;8.540;2024-02-16T04:40:58;6.18;;;4.78;;
21860;SDS011;11095;48.066;8.540;2024-02-16T04:43:24;5.88;;;4.75;;
21860;SDS011;11095;48.066;8.540;2024-02-16T04:45:50;6.93;;;4.93;;
21860;SDS011;11095;48.066;8.540;2024-02-16T04:48:15;6.60;;;5.03;;
21860;SDS011;11095;48.066;8.540;2024-02-16T04:50:41;6.22;;;4.57;;
21860;SDS011;11095;48.066;8.540;2024-02-16T04:53:07;5.88;;;4.50;;
21860;SDS011;11095;48.066;8.540;2024-02-16T04:55:33;6.15;;;4.82;;
21860;SDS011;11095;48.066;8.540;2024-02-16T04:57:59;8.55;;;5.50;;
21860;SDS011;11095;48.066;8.540;2024-02-16T05:00:24;6.32;;;4.72;;
21860;SDS011;11095;48.066;8.540;2024-02-16T05:02:50;7.78;;;4.82;;
21860;SDS011;11095;48.066;8.540;2024-02-16T05:05:17;6.57;;;5.13;;
21860;SDS011;11095;48.066;8.540;2024-02-16T05:07:43;7.55;;;5.18;;
21860;SDS011;11095;48.066;8.540;2024-02-16T05:10:13;7.00;;;5.00;;
21860;SDS011;11095;48.066;8.540;2024-02-16T05:12:38;8.00;;;5.78;;
21860;SDS011;11095;48.066;8.540;2024-02-16T05:15:04;7.85;;;5.35;;
21860;SDS011;11095;48.066;8.540;2024-02-16T05:17:31;7.15;;;5.35;;
21860;SDS011;11095;48.066;8.540;2024-02-16T05:19:56;7.57;;;6.10;;
21860;SDS011;11095;48.066;8.540;2024-02-16T05:22:22;7.68;;;5.60;;
21860;SDS011;11095;48.066;8.540;2024-02-16T05:24:47;9.05;;;6.07;;
21860;SDS011;11095;48.066;8.540;2024-02-16T05:27:13;9.05;;;6.50;;
21860;SDS011;11095;48.066;8.540;2024-02-16T05:29:39;9.07;;;6.32;;
21860;SDS011;11095;48.066;8.540;2024-02-16T05:32:05;10.10;;;6.50;;
21860;SDS011;11095;48.066;8.540;2024-02-16T05:34:31;8.77;;;6.43;;
21860;SDS011;11095;48.066;8.540;2024-02-16T05:37:03;9.00;;;6.50;;
21860;SDS011;11095;48.066;8.540;2024-02-16T05:39:31;10.35;;;6.65;;
21860;SDS011;11095;48.066;8.540;2024-02-16T05:41:59;10.82;;;7.25;;
21860;SDS011;11095;48.066;8.540;2024-02-16T05:44:25;10.27;;;6.97;;
21860;SDS011;11095;48.066;8.540;2024-02-16T05:46:51;9.38;;;7.00;;
21860;SDS011;11095;48.066;8.540;2024-02-16T05:49:17;10.70;;;7.43;;
21860;SDS011;11095;48.066;8.540;2024-02-16T05:51:42;8.98;;;6.65;;
21860;SDS011;11095;48.066;8.540;2024-02-16T05:54:26;11.05;;;7.22;;
21860;SDS011;11095;48.066;8.540;2024-02-16T05:56:52;9.10;;;6.93;;
21860;SDS011;11095;48.066;8.540;2024-02-16T05:59:18;10.90;;;7.65;;
21860;SDS011;11095;48.066;8.540;2024-02-16T06:01:43;10.00;;;7.40;;
21860;SDS011;11095;48.066;8.540;2024-02-16T06:04:09;10.77;;;7.75;;
21860;SDS011;11095;48.066;8.540;2024-02-16T06:06:35;11.48;;;7.50;;
21860;SDS011;11095;48.066;8.540;2024-02-16T06:09:01;10.75;;;8.00;;
21860;SDS011;11095;48.066;8.540;2024-02-16T06:11:27;11.07;;;7.82;;
21860;SDS011;11095;48.066;8.540;2024-02-16T06:13:53;10.63;;;8.27;;
21860;SDS011;11095;48.066;8.540;2024-02-16T06:16:18;11.25;;;7.88;;
21860;SDS011;11095;48.066;8.540;2024-02-16T06:18:44;11.38;;;8.10;;
21860;SDS011;11095;48.066;8.540;2024-02-16T06:21:10;11.68;;;8.55;;
21860;SDS011;11095;48.066;8.540;2024-02-16T06:23:35;12.82;;;8.88;;
21860;SDS011;11095;48.066;8.540;2024-02-16T06:26:01;12.30;;;8.52;;
21860;SDS011;11095;48.066;8.540;2024-02-16T06:28:26;12.88;;;8.77;;
21860;SDS011;11095;48.066;8.540;2024-02-16T06:30:52;13.15;;;9.18;;
21860;SDS011;11095;48.066;8.540;2024-02-16T06:33:17;14.93;;;8.73;;
21860;SDS011;11095;48.066;8.540;2024-02-16T06:35:43;13.68;;;8.93;;
21860;SDS011;11095;48.066;8.540;2024-02-16T06:38:11;12.75;;;9.73;;
21860;SDS011;11095;48.066;8.540;2024-02-16T06:40:37;13.48;;;9.07;;
21860;SDS011;11095;48.066;8.540;2024-02-16T06:43:02;11.52;;;9.15;;
21860;SDS011;11095;48.066;8.540;2024-02-16T06:45:29;11.85;;;8.68;;
21860;SDS011;11095;48.066;8.540;2024-02-16T06:47:55;11.18;;;8.18;;
21860;SDS011;11095;48.066;8.540;2024-02-16T06:50:21;11.00;;;8.38;;
21860;SDS011;11095;48.066;8.540;2024-02-16T06:52:47;14.57;;;8.65;;
21860;SDS011;11095;48.066;8.540;2024-02-16T06:55:12;11.65;;;8.68;;
21860;SDS011;11095;48.066;8.540;2024-02-16T06:57:38;12.73;;;9.00;;
21860;SDS011;11095;48.066;8.540;2024-02-16T07:00:04;11.50;;;8.20;;
21860;SDS011;11095;48.066;8.540;2024-02-16T07:02:30;9.80;;;7.65;;
21860;SDS011;11095;48.066;8.540;2024-02-16T07:04:56;10.93;;;7.72;;
21860;SDS011;11095;48.066;8.540;2024-02-16T07:07:21;11.57;;;8.43;;
21860;SDS011;11095;48.066;8.540;2024-02-16T07:09:47;11.18;;;7.90;;
21860;SDS011;11095;48.066;8.540;2024-02-16T07:12:12;11.57;;;7.90;;
21860;SDS011;11095;48.066;8.540;2024-02-16T07:14:38;10.43;;;7.10;;
21860;SDS011;11095;48.066;8.540;2024-02-16T07:17:04;11.90;;;8.52;;
21860;SDS011;11095;48.066;8.540;2024-02-16T07:19:34;11.05;;;8.23;;
21860;SDS011;11095;48.066;8.540;2024-02-16T07:22:00;12.88;;;8.43;;
21860;SDS011;11095;48.066;8.540;2024-02-16T07:24:25;10.77;;;7.70;;
21860;SDS011;11095;48.066;8.540;2024-02-16T07:26:52;9.73;;;7.55;;
21860;SDS011;11095;48.066;8.540;2024-02-16T07:29:18;10.48;;;7.43;;
21860;SDS011;11095;48.066;8.540;2024-02-16T07:31:44;9.73;;;7.13;;
21860;SDS011;11095;48.066;8.540;2024-02-16T07:34:09;11.55;;;7.38;;
21860;SDS011;11095;48.066;8.540;2024-02-16T07:36:36;11.13;;;7.78;;
21860;SDS011;11095;48.066;8.540;2024-02-16T07:39:02;10.38;;;7.38;;
21860;SDS011;11095;48.066;8.540;2024-02-16T07:41:29;10.57;;;7.70;;
21860;SDS011;11095;48.066;8.540;2024-02-16T07:43:55;11.82;;;7.75;;
21860;SDS011;11095;48.066;8.540;2024-02-16T07:46:20;11.18;;;7.60;;
21860;SDS011;11095;48.066;8.540;2024-02-16T07:48:48;10.82;;;7.75;;
21860;SDS011;11095;48.066;8.540;2024-02-16T07:51:13;11.55;;;7.70;;
21860;SDS011;11095;48.066;8.540;2024-02-16T07:53:39;9.50;;;7.10;;
21860;SDS011;11095;48.066;8.540;2024-02-16T07:56:07;10.85;;;7.60;;
21860;SDS011;11095;48.066;8.540;2024-02-16T07:58:32;9.45;;;7.15;;
21860;SDS011;11095;48.066;8.540;2024-02-16T08:00:58;9.32;;;7.00;;
21860;SDS011;11095;48.066;8.540;2024-02-16T08:03:23;9.25;;;7.10;;
21860;SDS011;11095;48.066;8.540;2024-02-16T08:05:49;10.52;;;7.15;;
21860;SDS011;11095;48.066;8.540;2024-02-16T08:08:14;11.55;;;7.50;;
21860;SDS011;11095;48.066;8.540;2024-02-16T08:10:40;10.07;;;7.65;;
21860;SDS011;11095;48.066;8.540;2024-02-16T08:13:06;9.43;;;7.35;;
21860;SDS011;11095;48.066;8.540;2024-02-16T08:15:31;11.43;;;7.35;;
21860;SDS011;11095;48.066;8.540;2024-02-16T08:17:57;9.68;;;7.60;;
21860;SDS011;11095;48.066;8.540;2024-02-16T08:20:22;10.80;;;7.45;;
21860;SDS011;11095;48.066;8.540;2024-02-16T08:22:48;11.50;;;7.57;;
21860;SDS011;11095;48.066;8.540;2024-02-16T08:25:14;10.57;;;7.70;;
21860;SDS011;11095;48.066;8.540;2024-02-16T08:27:39;11.63;;;7.28;;
21860;SDS011;11095;48.066;8.540;2024-02-16T08:30:05;9.15;;;7.13;;
21860;SDS011;11095;48.066;8.540;2024-02-16T08:32:33;9.52;;;6.70;;
21860;SDS011;11095;48.066;8.540;2024-02-16T08:34:59;10.68;;;7.43;;
21860;SDS011;11095;48.066;8.540;2024-02-16T08:37:25;10.05;;;8.15;;
21860;SDS011;11095;48.066;8.540;2024-02-16T08:39:51;10.30;;;6.97;;
21860;SDS011;11095;48.066;8.540;2024-02-16T08:42:17;10.02;;;6.97;;
21860;SDS011;11095;48.066;8.540;2024-02-16T08:44:42;10.82;;;6.90;;
21860;SDS011;11095;48.066;8.540;2024-02-16T08:47:08;8.65;;;6.60;;
21860;SDS011;11095;48.066;8.540;2024-02-16T08:49:34;9.50;;;7.05;;
21860;SDS011;11095;48.066;8.540;2024-02-16T08:52:00;7.85;;;6.13;;
21860;SDS011;11095;48.066;8.540;2024-02-16T08:54:25;8.07;;;6.15;;
21860;SDS011;11095;48.066;8.540;2024-02-16T08:56:52;8.52;;;6.43;;
21860;SDS011;11095;48.066;8.540;2024-02-16T08:59:18;9.75;;;5.88;;
21860;SDS011;11095;48.066;8.540;2024-02-16T09:01:44;9.70;;;6.15;;
21860;SDS011;11095;48.066;8.540;2024-02-16T09:04:09;7.13;;;5.78;;
21860;SDS011;11095;48.066;8.540;2024-02-16T09:06:35;6.40;;;5.47;;
21860;SDS011;11095;48.066;8.540;2024-02-16T09:09:01;7.80;;;5.80;;
21860;SDS011;11095;48.066;8.540;2024-02-16T09:11:27;8.07;;;5.68;;
21860;SDS011;11095;48.066;8.540;2024-02-16T09:13:55;6.57;;;4.90;;
21860;SDS011;11095;48.066;8.540;2024-02-16T09:16:21;6.88;;;5.07;;
21860;SDS011;11095;48.066;8.540;2024-02-16T09:18:47;6.75;;;4.88;;
21860;SDS011;11095;48.066;8.540;2024-02-16T09:21:15;8.40;;;5.07;;
21860;SDS011;11095;48.066;8.540;2024-02-16T09:23:41;7.22;;;4.85;;
21860;SDS011;11095;48.066;8.540;2024-02-16T09:26:06;5.57;;;4.53;;
21860;SDS011;11095;48.066;8.540;2024-02-16T09:28:38;5.78;;;4.60;;
21860;SDS011;11095;48.066;8.540;2024-02-16T09:31:06;6.35;;;4.63;;
21860;SDS011;11095;48.066;8.540;2024-02-16T09:33:33;8.68;;;4.80;;
21860;SDS011;11095;48.066;8.540;2024-02-16T09:35:58;5.85;;;4.43;;
21860;SDS011;11095;48.066;8.540;2024-02-16T09:38:24;5.60;;;4.82;;
21860;SDS011;11095;48.066;8.540;2024-02-16T09:40:50;6.85;;;4.70;;
21860;SDS011;11095;48.066;8.540;2024-02-16T09:43:28;6.30;;;5.20;;
21860;SDS011;11095;48.066;8.540;2024-02-16T09:45:58;5.72;;;4.50;;
21860;SDS011;11095;48.066;8.540;2024-02-16T09:48:27;7.82;;;4.82;;
21860;SDS011;11095;48.066;8.540;2024-02-16T09:50:53;8.38;;;5.22;;
21860;SDS011;11095;48.066;8.540;2024-02-16T09:53:19;5.88;;;4.68;;
21860;SDS011;11095;48.066;8.540;2024-02-16T09:55:49;6.30;;;4.80;;
21860;SDS011;11095;48.066;8.540;2024-02-16T09:58:15;5.63;;;4.75;;
21860;SDS011;11095;48.066;8.540;2024-02-16T10:03:25;5.22;;;4.60;;
21860;SDS011;11095;48.066;8.540;2024-02-16T10:06:03;7.70;;;4.97;;
21860;SDS011;11095;48.066;8.540;2024-02-16T10:08:31;6.00;;;4.40;;
21860;SDS011;11095;48.066;8.540;2024-02-16T10:11:00;6.40;;;4.95;;
21860;SDS011;11095;48.066;8.540;2024-02-16T10:13:30;7.13;;;5.00;;
21860;SDS011;11095;48.066;8.540;2024-02-16T10:16:09;6.10;;;4.57;;
21860;SDS011;11095;48.066;8.540;2024-02-16T10:18:36;6.18;;;4.70;;
21860;SDS011;11095;48.066;8.540;2024-02-16T10:21:03;6.88;;;4.90;;
21860;SDS011;11095;48.066;8.540;2024-02-16T10:23:29;7.00;;;5.10;;
21860;SDS011;11095;48.066;8.540;2024-02-16T10:25:55;5.65;;;4.07;;
21860;SDS011;11095;48.066;8.540;2024-02-16T10:28:20;6.65;;;4.00;;
21860;SDS011;11095;48.066;8.540;2024-02-16T10:30:52;8.18;;;3.92;;
21860;SDS011;11095;48.066;8.540;2024-02-16T10:33:30;5.70;;;3.60;;
21860;SDS011;11095;48.066;8.540;2024-02-16T10:35:57;5.18;;;3.55;;
21860;SDS011;11095;48.066;8.540;2024-02-16T10:38:23;5.93;;;3.83;;
21860;SDS011;11095;48.066;8.540;2024-02-16T10:40:50;5.43;;;4.07;;
21860;SDS011;11095;48.066;8.540;2024-02-16T10:43:17;5.85;;;4.38;;
21860;SDS011;11095;48.066;8.540;2024-02-16T10:45:43;6.80;;;3.58;;
21860;SDS011;11095;48.066;8.540;2024-02-16T10:48:12;6.13;;;3.20;;
21860;SDS011;11095;48.066;8.540;2024-02-16T10:50:38;5.57;;;3.42;;
21860;SDS011;11095;48.066;8.540;2024-02-16T10:53:04;5.20;;;3.08;;
21860;SDS011;11095;48.066;8.540;2024-02-16T10:55:43;7.35;;;3.20;;
21860;SDS011;11095;48.066;8.540;2024-02-16T10:58:10;5.55;;;3.40;;
21860;SDS011;11095;48.066;8.540;2024-02-16T11:00:47;5.05;;;3.53;;
21860;SDS011;11095;48.066;8.540;2024-02-16T11:03:23;5.35;;;3.60;;
21860;SDS011;11095;48.066;8.540;2024-02-16T11:05:50;5.40;;;3.25;;
21860;SDS011;11095;48.066;8.540;2024-02-16T11:08:17;5.03;;;3.38;;
21860;SDS011;11095;48.066;8.540;2024-02-16T11:10:56;6.13;;;3.60;;
21860;SDS011;11095;48.066;8.540;2024-02-16T11:13:26;4.85;;;3.30;;
21860;SDS011;11095;48.066;8.540;2024-02-16T11:16:11;5.07;;;3.10;;
21860;SDS011;11095;48.066;8.540;2024-02-16T11:18:42;4.45;;;2.67;;
21860;SDS011;11095;48.066;8.540;2024-02-16T11:21:15;4.75;;;3.38;;
21860;SDS011;11095;48.066;8.540;2024-02-16T11:23:41;4.72;;;2.95;;
21860;SDS011;11095;48.066;8.540;2024-02-16T11:26:11;4.47;;;3.30;;
21860;SDS011;11095;48.066;8.540;2024-02-16T11:31:06;4.53;;;3.00;;
21860;SDS011;11095;48.066;8.540;2024-02-16T11:33:33;3.90;;;2.78;;
21860;SDS011;11095;48.066;8.540;2024-02-16T11:36:00;4.22;;;2.53;;
21860;SDS011;11095;48.066;8.540;2024-02-16T11:38:32;3.97;;;2.35;;
21860;SDS011;11095;48.066;8.540;2024-02-16T11:43:27;3.03;;;2.20;;
21860;SDS011;11095;48.066;8.540;2024-02-16T11:45:54;5.97;;;2.50;;
21860;SDS011;11095;48.066;8.540;2024-02-16T11:48:20;3.85;;;2.30;;
21860;SDS011;11095;48.066;8.540;2024-02-16T11:50:50;4.50;;;2.30;;
21860;SDS011;11095;48.066;8.540;2024-02-16T11:53:24;4.40;;;2.17;;
21860;SDS011;11095;48.066;8.540;2024-02-16T11:55:49;3.67;;;1.90;;
21860;SDS011;11095;48.066;8.540;2024-02-16T11:58:18;3.95;;;1.27;;
21860;SDS011;11095;48.066;8.540;2024-02-16T12:00:45;3.97;;;1.42;;
21860;SDS011;11095;48.066;8.540;2024-02-16T12:03:17;4.10;;;1.58;;
21860;SDS011;11095;48.066;8.540;2024-02-16T12:05:49;5.20;;;1.25;;
21860;SDS011;11095;48.066;8.540;2024-02-16T12:08:19;5.93;;;1.45;;
21860;SDS011;11095;48.066;8.540;2024-02-16T12:10:46;4.13;;;1.40;;
21860;SDS011;11095;48.066;8.540;2024-02-16T12:13:13;2.58;;;1.35;;
21860;SDS011;11095;48.066;8.540;2024-02-16T12:15:41;3.38;;;1.60;;
21860;SDS011;11095;48.066;8.540;2024-02-16T12:18:09;2.22;;;1.15;;
21860;SDS011;11095;48.066;8.540;2024-02-16T12:20:34;3.20;;;1.17;;
21860;SDS011;11095;48.066;8.540;2024-02-16T12:23:10;5.93;;;1.50;;
21860;SDS011;11095;48.066;8.540;2024-02-16T12:25:36;3.95;;;1.52;;
21860;SDS011;11095;48.066;8.540;2024-02-16T12:28:02;2.58;;;1.40;;
21860;SDS011;11095;48.066;8.540;2024-02-16T12:30:28;3.83;;;1.40;;
21860;SDS011;11095;48.066;8.540;2024-02-16T12:32:53;2.13;;;1.38;;
21860;SDS011;11095;48.066;8.540;2024-02-16T12:35:19;3.13;;;1.40;;
21860;SDS011;11095;48.066;8.540;2024-02-16T12:37:45;3.88;;;1.40;;
21860;SDS011;11095;48.066;8.540;2024-02-16T12:40:11;2.60;;;1.40;;
21860;SDS011;11095;48.066;8.540;2024-02-16T12:42:36;3.50;;;1.10;;
21860;SDS011;11095;48.066;8.540;2024-02-16T12:45:03;3.85;;;1.50;;
21860;SDS011;11095;48.066;8.540;2024-02-16T12:47:29;2.97;;;1.50;;
21860;SDS011;11095;48.066;8.540;2024-02-16T12:49:55;5.80;;;1.33;;
21860;SDS011;11095;48.066;8.540;2024-02-16T12:52:22;4.30;;;2.35;;
21860;SDS011;11095;48.066;8.540;2024-02-16T12:54:48;5.75;;;1.80;;
21860;SDS011;11095;48.066;8.540;2024-02-16T12:57:14;4.75;;;1.50;;
21860;SDS011;11095;48.066;8.540;2024-02-16T12:59:39;3.83;;;1.40;;
21860;SDS011;11095;48.066;8.540;2024-02-16T13:02:05;4.63;;;2.00;;
21860;SDS011;11095;48.066;8.540;2024-02-16T13:04:31;4.95;;;2.47;;
21860;SDS011;11095;48.066;8.540;2024-02-16T13:06:57;3.67;;;2.60;;
21860;SDS011;11095;48.066;8.540;2024-02-16T13:09:23;2.47;;;1.92;;
21860;SDS011;11095;48.066;8.540;2024-02-16T13:11:49;4.95;;;2.70;;
21860;SDS011;11095;48.066;8.540;2024-02-16T13:14:19;5.03;;;2.28;;
21860;SDS011;11095;48.066;8.540;2024-02-16T13:16:45;5.28;;;3.03;;
21860;SDS011;11095;48.066;8.540;2024-02-16T13:19:12;5.50;;;2.92;;
21860;SDS011;11095;48.066;8.540;2024-02-16T13:21:38;4.13;;;2.60;;
21860;SDS011;11095;48.066;8.540;2024-02-16T13:24:03;5.78;;;3.10;;
21860;SDS011;11095;48.066;8.540;2024-02-16T13:26:30;5.38;;;3.17;;
21860;SDS011;11095;48.066;8.540;2024-02-16T13:28:56;6.65;;;3.75;;
21860;SDS011;11095;48.066;8.540;2024-02-16T13:31:22;7.88;;;3.80;;
21860;SDS011;11095;48.066;8.540;2024-02-16T13:33:48;5.05;;;2.00;;
21860;SDS011;11095;48.066;8.540;2024-02-16T13:36:14;5.38;;;1.90;;
21860;SDS011;11095;48.066;8.540;2024-02-16T13:38:40;4.40;;;2.13;;
21860;SDS011;11095;48.066;8.540;2024-02-16T13:41:06;5.25;;;2.40;;
21860;SDS011;11095;48.066;8.540;2024-02-16T13:43:31;3.97;;;1.77;;
21860;SDS011;11095;48.066;8.540;2024-02-16T13:45:57;4.25;;;1.75;;
21860;SDS011;11095;48.066;8.540;2024-02-16T13:48:23;4.50;;;1.83;;
21860;SDS011;11095;48.066;8.540;2024-02-16T13:50:49;5.90;;;1.77;;
21860;SDS011;11095;48.066;8.540;2024-02-16T13:53:15;5.82;;;2.08;;
21860;SDS011;11095;48.066;8.540;2024-02-16T13:55:42;3.80;;;1.30;;
21860;SDS011;11095;48.066;8.540;2024-02-16T13:58:11;3.53;;;1.60;;
21860;SDS011;11095;48.066;8.540;2024-02-16T14:00:37;5.88;;;1.45;;
21860;SDS011;11095;48.066;8.540;2024-02-16T14:03:04;3.58;;;1.40;;
21860;SDS011;11095;48.066;8.540;2024-02-16T14:05:33;4.88;;;1.60;;
21860;SDS011;11095;48.066;8.540;2024-02-16T14:08:00;4.35;;;1.70;;
21860;SDS011;11095;48.066;8.540;2024-02-16T14:10:26;5.18;;;1.50;;
21860;SDS011;11095;48.066;8.540;2024-02-16T14:12:51;5.18;;;2.33;;
21860;SDS011;11095;48.066;8.540;2024-02-16T14:15:17;4.07;;;1.58;;
21860;SDS011;11095;48.066;8.540;2024-02-16T14:17:44;3.85;;;1.70;;
21860;SDS011;11095;48.066;8.540;2024-02-16T14:20:10;4.13;;;1.50;;
21860;SDS011;11095;48.066;8.540;2024-02-16T14:22:36;4.15;;;1.27;;
21860;SDS011;11095;48.066;8.540;2024-02-16T14:25:01;2.85;;;1.20;;
21860;SDS011;11095;48.066;8.540;2024-02-16T14:27:28;5.40;;;1.88;;
21860;SDS011;11095;48.066;8.540;2024-02-16T14:29:54;5.20;;;1.50;;
21860;SDS011;11095;48.066;8.540;2024-02-16T14:32:20;3.25;;;1.60;;
21860;SDS011;11095;48.066;8.540;2024-02-16T14:34:46;4.47;;;1.70;;
21860;SDS011;11095;48.066;8.540;2024-02-16T14:37:11;5.88;;;1.98;;
21860;SDS011;11095;48.066;8.540;2024-02-16T14:39:37;3.40;;;1.77;;
21860;SDS011;11095;48.066;8.540;2024-02-16T14:42:02;3.90;;;1.50;;
21860;SDS011;11095;48.066;8.540;2024-02-16T14:44:28;3.75;;;1.50;;
21860;SDS011;11095;48.066;8.540;2024-02-16T14:46:54;3.65;;;1.60;;
21860;SDS011;11095;48.066;8.540;2024-02-16T14:49:19;3.45;;;1.50;;